createdAt,value
2022-11-10T00:00:39.356Z,16.75
2022-11-10T00:03:29.887Z,16.65
2022-11-10T00:06:18.494Z,16.62
2022-11-10T00:09:06.983Z,16.54
2022-11-10T00:11:55.342Z,16.45
2022-11-10T00:15:01.783Z,16.44
2022-11-10T00:17:51.437Z,16.34
2022-11-10T00:20:39.313Z,16.24
2022-11-10T00:23:27.620Z,16.21
2022-11-10T00:26:19.696Z,16.16
2022-11-10T00:29:08.442Z,16.11
2022-11-10T00:31:56.537Z,16.07
2022-11-10T00:34:46.134Z,16.06
2022-11-10T00:37:36.094Z,15.99
2022-11-10T00:40:25.280Z,15.91
2022-11-10T00:43:13.835Z,15.85
2022-11-10T00:46:02.362Z,15.82
2022-11-10T00:48:50.635Z,15.80
2022-11-10T00:51:40.094Z,15.70
2022-11-10T00:54:28.614Z,15.59
2022-11-10T00:57:17.192Z,15.53
2022-11-10T01:00:06.308Z,15.50
2022-11-10T01:02:54.822Z,15.42
2022-11-10T01:05:43.351Z,15.36
2022-11-10T01:08:32.432Z,15.32
2022-11-10T01:11:26.559Z,15.35
2022-11-10T01:14:15.224Z,15.31
2022-11-10T01:17:03.449Z,15.27
2022-11-10T01:19:52.501Z,15.22
2022-11-10T01:22:41.979Z,15.17
2022-11-10T01:25:30.268Z,15.07
2022-11-10T01:28:18.458Z,14.97
2022-11-10T01:31:19.562Z,14.87
2022-11-10T01:34:08.002Z,14.80
2022-11-10T01:36:57.718Z,14.74
2022-11-10T01:39:46.166Z,14.77
2022-11-10T01:42:57.223Z,14.76
2022-11-10T01:45:51.212Z,14.71
2022-11-10T01:48:54.221Z,14.69
2022-11-10T01:52:17.977Z,14.61
2022-11-10T01:55:07.164Z,14.63
2022-11-10T01:57:57.146Z,14.55
2022-11-10T02:00:46.178Z,14.53
2022-11-10T02:03:56.654Z,14.47
2022-11-10T02:06:48.826Z,14.43
2022-11-10T02:09:37.674Z,14.39
2022-11-10T02:12:38.535Z,14.36
2022-11-10T02:15:27.402Z,14.36
2022-11-10T02:18:16.374Z,14.32
2022-11-10T02:21:06.574Z,14.32
2022-11-10T02:23:55.987Z,14.22
2022-11-10T02:26:55.918Z,14.21
2022-11-10T02:29:45.625Z,14.16
2022-11-10T02:32:34.196Z,14.13
2022-11-10T02:35:22.339Z,14.12
2022-11-10T02:38:10.618Z,14.11
2022-11-10T02:40:59.552Z,13.99
2022-11-10T02:43:48.233Z,13.98
2022-11-10T02:46:38.704Z,13.97
2022-11-10T02:49:26.759Z,13.95
2022-11-10T02:52:16.087Z,13.91
2022-11-10T02:55:05.610Z,13.91
2022-11-10T02:57:54.437Z,13.84
2022-11-10T03:00:42.618Z,13.84
2022-11-10T03:03:30.781Z,13.81
2022-11-10T03:06:19.353Z,13.84
2022-11-10T03:09:08.194Z,13.75
2022-11-10T03:11:56.751Z,13.74
2022-11-10T03:14:44.935Z,13.71
2022-11-10T03:17:33.637Z,13.68
2022-11-10T03:20:22.634Z,13.60
2022-11-10T03:23:11.097Z,13.54
2022-11-10T03:25:59.747Z,13.47
2022-11-10T03:28:48.552Z,13.48
2022-11-10T03:31:37.227Z,13.41
2022-11-10T03:34:28.180Z,13.34
2022-11-10T03:37:19.951Z,13.36
2022-11-10T03:40:09.072Z,13.34
2022-11-10T03:42:57.646Z,13.31
2022-11-10T03:45:49.809Z,13.34
2022-11-10T03:48:38.367Z,13.31
2022-11-10T03:51:26.767Z,13.31
2022-11-10T03:54:15.444Z,13.24
2022-11-10T03:57:03.726Z,13.23
2022-11-10T03:59:52.300Z,13.14
2022-11-10T04:02:41.371Z,13.04
2022-11-10T04:05:48.241Z,13.07
2022-11-10T04:08:55.047Z,13.09
2022-11-10T04:12:01.839Z,13.03
2022-11-10T04:15:08.283Z,12.96
2022-11-10T04:18:16.789Z,12.93
2022-11-10T04:21:05.681Z,12.97
2022-11-10T04:23:54.190Z,12.91
2022-11-10T04:26:44.059Z,12.83
2022-11-10T04:29:32.678Z,12.79
2022-11-10T04:32:20.845Z,12.82
2022-11-10T04:35:09.333Z,12.81
2022-11-10T04:37:57.604Z,12.78
2022-11-10T04:40:46.486Z,12.72
2022-11-10T04:43:34.835Z,12.65
2022-11-10T04:46:26.544Z,12.58
2022-11-10T04:49:15.086Z,12.61
2022-11-10T04:52:03.719Z,12.63
2022-11-10T04:54:51.960Z,12.68
2022-11-10T04:57:40.293Z,12.63
2022-11-10T05:00:29.022Z,12.59
2022-11-10T05:03:17.584Z,12.59
2022-11-10T05:06:06.430Z,12.54
2022-11-10T05:08:55.602Z,12.52
2022-11-10T05:11:44.141Z,12.46
2022-11-10T05:14:32.906Z,12.42
2022-11-10T05:17:21.715Z,12.41
2022-11-10T05:20:11.464Z,12.38
2022-11-10T05:23:17.751Z,12.40
2022-11-10T05:26:14.007Z,12.38
2022-11-10T05:29:01.928Z,12.30
2022-11-10T05:31:51.615Z,12.25
2022-11-10T05:34:40.359Z,12.23
2022-11-10T05:37:29.311Z,12.18
2022-11-10T05:40:18.523Z,12.07
2022-11-10T05:43:06.504Z,12.05
2022-11-10T05:45:54.895Z,12.03
2022-11-10T05:48:43.804Z,11.90
2022-11-10T05:51:32.402Z,11.83
2022-11-10T05:54:20.784Z,11.87
2022-11-10T05:57:09.268Z,11.87
2022-11-10T05:59:57.996Z,11.89
2022-11-10T06:02:46.893Z,11.86
2022-11-10T06:05:36.939Z,11.84
2022-11-10T06:08:25.265Z,11.76
2022-11-10T06:11:14.126Z,11.74
2022-11-10T06:14:03.192Z,11.63
2022-11-10T06:16:51.599Z,11.62
2022-11-10T06:19:40.093Z,11.59
2022-11-10T06:22:28.530Z,11.53
2022-11-10T06:25:17.456Z,11.47
2022-11-10T06:28:07.377Z,11.53
2022-11-10T06:31:00.187Z,11.49
2022-11-10T06:33:50.355Z,11.40
2022-11-10T06:36:40.383Z,11.38
2022-11-10T06:39:28.949Z,11.31
2022-11-10T06:42:17.213Z,11.29
2022-11-10T06:45:06.384Z,11.34
2022-11-10T06:48:09.452Z,11.29
2022-11-10T06:50:57.705Z,11.29
2022-11-10T06:53:45.906Z,11.25
2022-11-10T06:56:34.645Z,11.19
2022-11-10T06:59:23.509Z,11.18
2022-11-10T07:02:20.675Z,11.12
2022-11-10T07:05:09.550Z,11.14
2022-11-10T07:07:57.631Z,11.07
2022-11-10T07:10:53.711Z,11.07
2022-11-10T07:13:42.386Z,11.04
2022-11-10T07:16:31.054Z,10.98
2022-11-10T07:19:19.303Z,10.95
2022-11-10T07:22:11.177Z,10.93
2022-11-10T07:24:59.917Z,10.94
2022-11-10T07:27:48.196Z,10.94
2022-11-10T07:30:37.860Z,10.83
2022-11-10T07:33:26.650Z,10.83
2022-11-10T07:36:15.536Z,10.84
2022-11-10T07:39:04.154Z,10.77
2022-11-10T07:41:52.851Z,10.78
2022-11-10T07:44:41.515Z,10.78
2022-11-10T07:47:30.298Z,10.74
2022-11-10T07:50:20.005Z,10.67
2022-11-10T07:53:10.993Z,10.70
2022-11-10T07:56:00.537Z,10.71
2022-11-10T07:58:49.670Z,10.64
2022-11-10T08:01:37.943Z,10.57
2022-11-10T08:04:26.256Z,10.59
2022-11-10T08:07:15.329Z,10.52
2022-11-10T08:10:03.981Z,10.50
2022-11-10T08:13:02.988Z,10.37
2022-11-10T08:15:51.230Z,10.33
2022-11-10T08:18:40.833Z,10.37
2022-11-10T08:21:30.193Z,10.37
2022-11-10T08:24:18.321Z,10.35
2022-11-10T08:27:06.825Z,10.28
2022-11-10T08:29:55.789Z,10.25
2022-11-10T08:32:44.426Z,10.26
2022-11-10T08:35:36.703Z,10.22
2022-11-10T08:38:25.792Z,10.23
2022-11-10T08:41:14.455Z,10.25
2022-11-10T08:44:02.969Z,10.30
2022-11-10T08:46:52.176Z,10.32
2022-11-10T08:49:40.447Z,10.30
2022-11-10T08:52:28.936Z,10.32
2022-11-10T08:55:17.530Z,10.36
2022-11-10T08:58:06.917Z,10.47
2022-11-10T09:00:55.462Z,11.03
2022-11-10T09:03:44.431Z,11.49
2022-11-10T09:06:32.777Z,11.91
2022-11-10T09:09:21.007Z,12.25
2022-11-10T09:12:09.359Z,12.49
2022-11-10T09:14:58.249Z,12.85
2022-11-10T09:17:46.871Z,13.22
2022-11-10T09:20:37.119Z,13.44
2022-11-10T09:23:26.452Z,13.74
2022-11-10T09:26:15.421Z,13.98
2022-11-10T09:29:03.671Z,14.32
2022-11-10T09:31:51.974Z,14.63
2022-11-10T09:34:40.033Z,14.87
2022-11-10T09:37:29.323Z,15.14
2022-11-10T09:40:51.834Z,15.49
2022-11-10T09:44:05.472Z,15.82
2022-11-10T09:47:57.010Z,16.22
2022-11-10T09:50:43.806Z,16.62
2022-11-10T09:54:10.957Z,16.99
2022-11-10T09:57:04.388Z,17.39
2022-11-10T09:59:54.080Z,17.73
2022-11-10T10:03:07.237Z,18.09
2022-11-10T10:06:33.917Z,18.56
2022-11-10T10:09:49.151Z,18.97
2022-11-10T10:12:37.274Z,19.19
2022-11-10T10:15:47.407Z,19.28
2022-11-10T10:18:47.762Z,19.73
2022-11-10T10:21:56.496Z,20.24
2022-11-10T10:24:44.883Z,20.55
2022-11-10T10:27:36.629Z,20.76
2022-11-10T10:30:25.294Z,20.74
2022-11-10T10:33:24.768Z,21.16
2022-11-10T10:36:25.908Z,21.32
2022-11-10T10:39:36.827Z,21.40
2022-11-10T10:42:27.799Z,22.18
2022-11-10T10:45:19.248Z,22.62
2022-11-10T10:48:30.427Z,22.96
2022-11-10T10:51:33.325Z,23.41
2022-11-10T10:54:30.139Z,22.82
2022-11-10T10:57:32.179Z,23.17
2022-11-10T11:00:24.779Z,23.40
2022-11-10T11:03:30.579Z,22.84
2022-11-10T11:06:20.528Z,23.27
2022-11-10T11:09:17.028Z,23.34
2022-11-10T11:12:27.728Z,24.13
2022-11-10T11:15:31.514Z,24.51
2022-11-10T11:18:22.067Z,24.61
2022-11-10T11:21:16.745Z,25.05
2022-11-10T11:24:29.498Z,24.91
2022-11-10T11:27:25.727Z,24.61
2022-11-10T11:30:23.266Z,24.36
2022-11-10T11:33:12.050Z,24.67
2022-11-10T11:36:10.971Z,24.78
2022-11-10T11:39:17.948Z,25.35
2022-11-10T11:42:32.470Z,25.70
2022-11-10T11:45:28.888Z,27.16
2022-11-10T11:48:29.767Z,27.04
2022-11-10T11:51:31.436Z,26.28
2022-11-10T11:54:29.829Z,26.53
2022-11-10T11:57:42.610Z,26.38
2022-11-10T12:00:38.759Z,26.28
2022-11-10T12:03:55.908Z,26.63
2022-11-10T12:06:50.760Z,26.86
2022-11-10T12:09:58.847Z,27.61
2022-11-10T12:13:01.357Z,27.36
2022-11-10T12:16:10.359Z,27.41
2022-11-10T12:19:19.732Z,27.88
2022-11-10T12:22:30.650Z,28.06
2022-11-10T12:26:08.984Z,28.29
2022-11-10T12:29:07.235Z,28.23
2022-11-10T12:32:02.897Z,28.70
2022-11-10T12:35:07.895Z,29.05
2022-11-10T12:38:03.381Z,29.19
2022-11-10T12:40:56.361Z,28.86
2022-11-10T12:43:59.578Z,29.48
2022-11-10T12:46:52.158Z,31.00
2022-11-10T12:49:56.465Z,31.54
2022-11-10T12:53:28.771Z,31.51
2022-11-10T12:56:26.111Z,30.41
2022-11-10T12:59:23.654Z,30.09
2022-11-10T13:02:35.167Z,29.15
2022-11-10T13:05:30.816Z,28.54
2022-11-10T13:08:46.809Z,28.33
2022-11-10T13:11:38.875Z,29.53
2022-11-10T13:14:32.618Z,29.73
2022-11-10T13:17:28.713Z,29.93
2022-11-10T13:20:41.362Z,30.82
2022-11-10T13:23:57.876Z,30.85
2022-11-10T13:26:46.959Z,31.03
2022-11-10T13:29:57.729Z,31.03
2022-11-10T13:32:46.055Z,31.15
2022-11-10T13:35:40.573Z,32.28
2022-11-10T13:38:36.731Z,32.56
2022-11-10T13:41:27.753Z,32.90
2022-11-10T13:44:42.053Z,32.75
2022-11-10T13:47:56.575Z,32.43
2022-11-10T13:51:26.111Z,33.43
2022-11-10T13:54:54.265Z,32.99
2022-11-10T13:57:59.543Z,33.92
2022-11-10T14:01:13.712Z,33.75
2022-11-10T14:04:06.382Z,31.80
2022-11-10T14:06:57.214Z,31.78
2022-11-10T14:09:51.097Z,31.63
2022-11-10T14:12:54.902Z,32.46
2022-11-10T14:15:50.001Z,34.13
2022-11-10T14:18:49.407Z,34.35
2022-11-10T14:21:47.002Z,34.43
2022-11-10T14:24:53.073Z,35.14
2022-11-10T14:27:42.496Z,34.16
2022-11-10T14:30:34.537Z,34.50
2022-11-10T14:33:24.703Z,34.56
2022-11-10T14:36:16.187Z,34.71
2022-11-10T14:39:10.039Z,35.14
2022-11-10T14:42:02.473Z,35.82
2022-11-10T14:44:51.081Z,36.21
2022-11-10T14:47:39.703Z,36.63
2022-11-10T14:50:34.456Z,35.88
2022-11-10T14:53:48.850Z,36.45
2022-11-10T14:56:41.761Z,37.98
2022-11-10T14:59:30.513Z,36.82
2022-11-10T15:02:21.019Z,35.94
2022-11-10T15:05:15.864Z,36.23
2022-11-10T15:08:06.790Z,36.98
2022-11-10T15:10:57.911Z,36.50
2022-11-10T15:13:46.530Z,36.27
2022-11-10T15:16:40.920Z,37.23
2022-11-10T15:19:33.588Z,36.61
2022-11-10T15:22:24.868Z,36.84
2022-11-10T15:25:22.529Z,38.71
2022-11-10T15:28:22.660Z,39.12
2022-11-10T15:31:15.477Z,39.80
2022-11-10T15:34:06.688Z,37.81
2022-11-10T15:37:11.858Z,37.47
2022-11-10T15:40:33.718Z,36.47
2022-11-10T15:43:25.662Z,37.49
2022-11-10T15:46:18.697Z,38.06
2022-11-10T15:49:31.205Z,37.49
2022-11-10T15:52:25.788Z,37.35
2022-11-10T15:55:25.043Z,38.58
2022-11-10T15:58:22.236Z,38.44
2022-11-10T16:01:13.386Z,39.16
2022-11-10T16:04:02.117Z,40.01
2022-11-10T16:06:50.831Z,39.03
2022-11-10T16:09:39.012Z,38.20
2022-11-10T16:12:28.056Z,38.00
2022-11-10T16:15:22.869Z,37.91
2022-11-10T16:18:16.447Z,38.59
2022-11-10T16:21:05.235Z,38.71
2022-11-10T16:23:55.608Z,38.17
2022-11-10T16:26:43.556Z,39.56
2022-11-10T16:29:34.699Z,38.45
2022-11-10T16:32:23.819Z,38.44
2022-11-10T16:35:15.922Z,37.87
2022-11-10T16:38:04.683Z,38.42
2022-11-10T16:41:04.179Z,38.41
2022-11-10T16:43:52.832Z,37.91
2022-11-10T16:46:43.005Z,37.30
2022-11-10T16:49:36.682Z,37.50
2022-11-10T16:52:25.586Z,36.57
2022-11-10T16:55:15.290Z,35.08
2022-11-10T16:58:03.485Z,36.94
2022-11-10T17:00:52.948Z,38.11
2022-11-10T17:03:48.282Z,39.81
2022-11-10T17:06:37.728Z,41.10
2022-11-10T17:09:27.945Z,40.27
2022-11-10T17:12:17.153Z,38.95
2022-11-10T17:15:06.050Z,37.52
2022-11-10T17:17:59.834Z,37.11
2022-11-10T17:20:53.822Z,37.53
2022-11-10T17:23:42.353Z,37.28
2022-11-10T17:26:31.945Z,38.25
2022-11-10T17:29:23.088Z,38.15
2022-11-10T17:32:11.828Z,38.87
2022-11-10T17:35:00.970Z,38.64
2022-11-10T17:37:56.284Z,38.52
2022-11-10T17:40:45.376Z,37.97
2022-11-10T17:43:33.792Z,36.50
2022-11-10T17:46:22.194Z,34.84
2022-11-10T17:49:10.620Z,34.54
2022-11-10T17:51:59.526Z,34.68
2022-11-10T17:54:48.406Z,34.88
2022-11-10T17:57:37.120Z,34.27
2022-11-10T18:00:26.276Z,33.86
2022-11-10T18:03:24.247Z,33.44
2022-11-10T18:06:20.699Z,33.62
2022-11-10T18:09:09.224Z,33.58
2022-11-10T18:11:57.553Z,33.35
2022-11-10T18:14:46.102Z,32.87
2022-11-10T18:17:34.865Z,32.66
2022-11-10T18:20:23.135Z,32.65
2022-11-10T18:23:13.675Z,32.90
2022-11-10T18:26:09.953Z,32.96
2022-11-10T18:28:58.609Z,32.60
2022-11-10T18:31:46.837Z,32.43
2022-11-10T18:34:34.878Z,32.38
2022-11-10T18:37:23.719Z,32.66
2022-11-10T18:40:12.750Z,32.46
2022-11-10T18:43:06.949Z,32.31
2022-11-10T18:45:55.891Z,32.63
2022-11-10T18:48:46.275Z,32.69
2022-11-10T18:51:35.295Z,33.14
2022-11-10T18:54:23.575Z,32.99
2022-11-10T18:57:17.557Z,33.47
2022-11-10T19:00:08.178Z,33.64
2022-11-10T19:02:57.195Z,33.45
2022-11-10T19:05:57.209Z,32.75
2022-11-10T19:08:46.753Z,32.29
2022-11-10T19:11:35.854Z,31.80
2022-11-10T19:14:24.473Z,31.41
2022-11-10T19:17:13.575Z,31.04
2022-11-10T19:20:01.844Z,30.83
2022-11-10T19:22:50.511Z,30.74
2022-11-10T19:25:39.257Z,30.76
2022-11-10T19:28:30.026Z,30.83
2022-11-10T19:31:19.997Z,30.82
2022-11-10T19:34:09.231Z,30.74
2022-11-10T19:36:57.600Z,30.48
2022-11-10T19:39:46.064Z,30.38
2022-11-10T19:42:35.056Z,30.35
2022-11-10T19:45:23.269Z,30.17
2022-11-10T19:48:11.875Z,30.06
2022-11-10T19:51:02.213Z,29.99
2022-11-10T19:53:57.455Z,30.09
2022-11-10T19:56:45.828Z,30.23
2022-11-10T19:59:34.940Z,30.16
2022-11-10T20:02:23.809Z,30.27
2022-11-10T20:05:14.701Z,30.28
2022-11-10T20:08:12.417Z,30.13
2022-11-10T20:11:27.775Z,30.14
2022-11-10T20:14:16.519Z,30.04
2022-11-10T20:17:04.586Z,29.83
2022-11-10T20:19:52.928Z,29.72
2022-11-10T20:22:41.525Z,29.45
2022-11-10T20:25:30.874Z,29.32
2022-11-10T20:28:19.010Z,29.16
2022-11-10T20:31:21.450Z,29.03
2022-11-10T20:34:10.871Z,28.90
2022-11-10T20:36:59.711Z,28.77
2022-11-10T20:39:48.125Z,28.67
2022-11-10T20:42:40.262Z,28.66
2022-11-10T20:45:31.101Z,28.74
2022-11-10T20:48:19.691Z,28.75
2022-11-10T20:51:20.561Z,28.43
2022-11-10T20:54:09.804Z,28.40
2022-11-10T20:56:58.464Z,28.35
2022-11-10T20:59:47.269Z,28.17
2022-11-10T21:02:35.554Z,28.02
2022-11-10T21:05:24.321Z,27.74
2022-11-10T21:08:13.096Z,27.55
2022-11-10T21:11:07.122Z,27.38
2022-11-10T21:13:55.310Z,27.22
2022-11-10T21:16:44.118Z,27.04
2022-11-10T21:19:38.771Z,26.86
2022-11-10T21:22:27.719Z,26.60
2022-11-10T21:25:17.663Z,26.37
2022-11-10T21:28:07.539Z,26.05
2022-11-10T21:31:05.254Z,25.84
2022-11-10T21:33:58.169Z,25.65
2022-11-10T21:36:46.311Z,25.32
2022-11-10T21:39:34.574Z,25.05
2022-11-10T21:42:24.533Z,24.80
2022-11-10T21:45:13.717Z,24.54
2022-11-10T21:48:05.654Z,24.39
2022-11-10T21:50:54.133Z,24.16
2022-11-10T21:53:45.791Z,23.89
2022-11-10T21:56:34.727Z,23.65
2022-11-10T21:59:22.680Z,23.52
2022-11-10T22:02:11.910Z,23.40
2022-11-10T22:05:00.289Z,23.25
2022-11-10T22:07:48.885Z,23.06
2022-11-10T22:10:55.655Z,22.97
2022-11-10T22:14:01.816Z,22.87
2022-11-10T22:17:10.272Z,22.76
2022-11-10T22:19:58.645Z,22.60
2022-11-10T22:22:47.111Z,22.52
2022-11-10T22:25:35.489Z,22.48
2022-11-10T22:28:24.210Z,22.43
2022-11-10T22:31:13.893Z,22.35
2022-11-10T22:34:01.936Z,22.25
2022-11-10T22:36:54.803Z,22.14
2022-11-10T22:40:01.572Z,22.09
2022-11-10T22:43:08.570Z,21.94
2022-11-10T22:45:56.976Z,21.88
2022-11-10T22:48:45.364Z,21.80
2022-11-10T22:51:34.638Z,21.65
2022-11-10T22:54:25.840Z,21.46
2022-11-10T22:57:13.939Z,21.39
2022-11-10T23:00:02.182Z,21.36
2022-11-10T23:02:53.166Z,21.29
2022-11-10T23:05:42.869Z,21.13
2022-11-10T23:08:32.276Z,21.00
2022-11-10T23:11:25.989Z,20.89
2022-11-10T23:14:14.644Z,20.76
2022-11-10T23:17:03.351Z,20.72
2022-11-10T23:19:52.101Z,20.67
2022-11-10T23:22:41.345Z,20.61
2022-11-10T23:25:30.017Z,20.59
2022-11-10T23:28:18.710Z,20.67
2022-11-10T23:31:19.029Z,20.71
2022-11-10T23:34:07.401Z,20.71
2022-11-10T23:36:56.056Z,20.71
2022-11-10T23:39:44.730Z,20.67
2022-11-10T23:42:33.735Z,20.59
2022-11-10T23:45:21.876Z,20.49
2022-11-10T23:48:10.020Z,20.44
2022-11-10T23:50:58.620Z,20.41
2022-11-10T23:53:47.764Z,20.31
2022-11-10T23:56:36.111Z,20.28
2022-11-10T23:59:24.690Z,20.30
